sensor_id;sensor_type;location;lat;lon;timestamp;pressure;altitude;pressure_sealevel;temperature;humidity
72587;BME280;60621;49.576;11.024;2023-04-03T00:00:52;99199.75;;;5.89;53.63
72587;BME280;60621;49.576;11.024;2023-04-03T00:01:54;99199.56;;;5.86;53.73
72587;BME280;60621;49.576;11.024;2023-04-03T00:02:56;99204.63;;;5.82;54.20
72587;BME280;60621;49.576;11.024;2023-04-03T00:03:58;99199.81;;;5.76;54.62
72587;BME280;60621;49.576;11.024;2023-04-03T00:05:03;99198.28;;;5.75;54.41
72587;BME280;60621;49.576;11.024;2023-04-03T00:06:05;99199.34;;;5.74;54.61
72587;BME280;60621;49.576;11.024;2023-04-03T00:07:08;99200.28;;;5.78;54.72
72587;BME280;60621;49.576;11.024;2023-04-03T00:08:10;99193.50;;;5.77;54.74
72587;BME280;60621;49.576;11.024;2023-04-03T00:09:12;99189.22;;;5.81;54.05
72587;BME280;60621;49.576;11.024;2023-04-03T00:10:14;99194.16;;;5.82;54.34
72587;BME280;60621;49.576;11.024;2023-04-03T00:11:16;99197.06;;;5.81;54.40
72587;BME280;60621;49.576;11.024;2023-04-03T00:12:19;99197.38;;;5.79;55.34
72587;BME280;60621;49.576;11.024;2023-04-03T00:13:20;99197.03;;;5.72;55.27
72587;BME280;60621;49.576;11.024;2023-04-03T00:14:22;99196.72;;;5.74;54.72
72587;BME280;60621;49.576;11.024;2023-04-03T00:15:23;99200.91;;;5.75;55.26
72587;BME280;60621;49.576;11.024;2023-04-03T00:16:25;99198.56;;;5.73;54.84
72587;BME280;60621;49.576;11.024;2023-04-03T00:17:27;99199.47;;;5.69;54.30
72587;BME280;60621;49.576;11.024;2023-04-03T00:18:29;99195.13;;;5.64;54.88
72587;BME280;60621;49.576;11.024;2023-04-03T00:19:30;99198.81;;;5.63;54.90
72587;BME280;60621;49.576;11.024;2023-04-03T00:20:33;99200.84;;;5.66;55.15
72587;BME280;60621;49.576;11.024;2023-04-03T00:21:35;99202.84;;;5.69;54.54
72587;BME280;60621;49.576;11.024;2023-04-03T00:22:37;99202.97;;;5.64;54.79
72587;BME280;60621;49.576;11.024;2023-04-03T00:23:39;99196.78;;;5.60;54.59
72587;BME280;60621;49.576;11.024;2023-04-03T00:24:40;99197.41;;;5.57;55.42
72587;BME280;60621;49.576;11.024;2023-04-03T00:25:42;99200.97;;;5.61;55.39
72587;BME280;60621;49.576;11.024;2023-04-03T00:26:44;99203.16;;;5.68;55.49
72587;BME280;60621;49.576;11.024;2023-04-03T00:27:46;99200.84;;;5.66;55.68
72587;BME280;60621;49.576;11.024;2023-04-03T00:28:47;99202.03;;;5.60;55.78
72587;BME280;60621;49.576;11.024;2023-04-03T00:29:49;99197.28;;;5.62;56.08
72587;BME280;60621;49.576;11.024;2023-04-03T00:30:51;99207.16;;;5.65;56.24
72587;BME280;60621;49.576;11.024;2023-04-03T00:31:53;99203.16;;;5.68;56.12
72587;BME280;60621;49.576;11.024;2023-04-03T00:32:54;99195.88;;;5.64;55.93
72587;BME280;60621;49.576;11.024;2023-04-03T00:33:56;99197.28;;;5.62;55.19
72587;BME280;60621;49.576;11.024;2023-04-03T00:34:57;99204.94;;;5.58;55.57
72587;BME280;60621;49.576;11.024;2023-04-03T00:35:59;99199.84;;;5.53;54.95
72587;BME280;60621;49.576;11.024;2023-04-03T00:37:01;99191.69;;;5.55;54.37
72587;BME280;60621;49.576;11.024;2023-04-03T00:38:03;99197.88;;;5.59;54.77
72587;BME280;60621;49.576;11.024;2023-04-03T00:39:04;99197.69;;;5.55;54.97
72587;BME280;60621;49.576;11.024;2023-04-03T00:40:08;99191.22;;;5.53;55.22
72587;BME280;60621;49.576;11.024;2023-04-03T00:41:13;99190.91;;;5.54;55.36
72587;BME280;60621;49.576;11.024;2023-04-03T00:42:17;99193.53;;;5.54;55.18
72587;BME280;60621;49.576;11.024;2023-04-03T00:43:23;99188.00;;;5.56;55.49
72587;BME280;60621;49.576;11.024;2023-04-03T00:45:38;99194.78;;;5.57;54.50
72587;BME280;60621;49.576;11.024;2023-04-03T00:46:40;99195.56;;;5.57;54.74
72587;BME280;60621;49.576;11.024;2023-04-03T00:47:42;99197.69;;;5.55;55.33
72587;BME280;60621;49.576;11.024;2023-04-03T00:48:45;99197.88;;;5.59;55.13
72587;BME280;60621;49.576;11.024;2023-04-03T00:49:47;99198.16;;;5.57;54.48
72587;BME280;60621;49.576;11.024;2023-04-03T00:50:50;99194.16;;;5.60;54.55
72587;BME280;60621;49.576;11.024;2023-04-03T00:51:51;99195.50;;;5.49;54.70
72587;BME280;60621;49.576;11.024;2023-04-03T00:52:56;99200.66;;;5.40;54.53
72587;BME280;60621;49.576;11.024;2023-04-03T00:54:01;99203.81;;;5.28;54.36
72587;BME280;60621;49.576;11.024;2023-04-03T00:55:06;99203.53;;;5.30;55.11
72587;BME280;60621;49.576;11.024;2023-04-03T00:56:10;99205.75;;;5.36;55.62
72587;BME280;60621;49.576;11.024;2023-04-03T00:57:13;99204.06;;;5.40;54.75
72587;BME280;60621;49.576;11.024;2023-04-03T00:58:19;99193.97;;;5.48;55.26
72587;BME280;60621;49.576;11.024;2023-04-03T00:59:25;99195.81;;;5.47;54.33
72587;BME280;60621;49.576;11.024;2023-04-03T01:00:28;99200.50;;;5.36;54.79
72587;BME280;60621;49.576;11.024;2023-04-03T01:01:31;99199.84;;;5.31;55.63
72587;BME280;60621;49.576;11.024;2023-04-03T01:02:33;99198.94;;;5.35;55.45
72587;BME280;60621;49.576;11.024;2023-04-03T01:03:34;99199.25;;;5.34;55.49
72587;BME280;60621;49.576;11.024;2023-04-03T01:04:39;99200.50;;;5.36;55.51
72587;BME280;60621;49.576;11.024;2023-04-03T01:05:41;99202.06;;;5.37;55.13
72587;BME280;60621;49.576;11.024;2023-04-03T01:06:43;99195.28;;;5.36;55.34
72587;BME280;60621;49.576;11.024;2023-04-03T01:07:45;99199.13;;;5.39;55.67
72587;BME280;60621;49.576;11.024;2023-04-03T01:08:48;99194.00;;;5.34;55.75
72587;BME280;60621;49.576;11.024;2023-04-03T01:09:53;99198.78;;;5.32;55.35
72587;BME280;60621;49.576;11.024;2023-04-03T01:10:57;99204.16;;;5.35;56.00
72587;BME280;60621;49.576;11.024;2023-04-03T01:13:26;99202.16;;;5.32;55.38
72587;BME280;60621;49.576;11.024;2023-04-03T01:14:28;99200.31;;;5.33;55.08
72587;BME280;60621;49.576;11.024;2023-04-03T01:15:29;99197.97;;;5.31;55.49
72587;BME280;60621;49.576;11.024;2023-04-03T01:16:36;99198.28;;;5.30;55.92
72587;BME280;60621;49.576;11.024;2023-04-03T01:17:50;99201.22;;;5.28;55.31
72587;BME280;60621;49.576;11.024;2023-04-03T01:18:52;99199.59;;;5.19;54.95
72587;BME280;60621;49.576;11.024;2023-04-03T01:21:59;99208.88;;;5.25;55.40
72587;BME280;60621;49.576;11.024;2023-04-03T01:25:30;99198.41;;;5.25;55.39
72587;BME280;60621;49.576;11.024;2023-04-03T01:26:32;99196.56;;;5.25;55.60
72587;BME280;60621;49.576;11.024;2023-04-03T01:27:34;99205.41;;;5.16;55.92
72587;BME280;60621;49.576;11.024;2023-04-03T01:28:35;99199.72;;;5.13;56.28
72587;BME280;60621;49.576;11.024;2023-04-03T01:29:37;99201.56;;;5.13;56.37
72587;BME280;60621;49.576;11.024;2023-04-03T01:30:56;99195.84;;;5.11;56.00
72587;BME280;60621;49.576;11.024;2023-04-03T01:32:02;99195.53;;;5.12;55.59
72587;BME280;60621;49.576;11.024;2023-04-03T01:33:04;99204.94;;;5.13;56.18
72587;BME280;60621;49.576;11.024;2023-04-03T01:34:05;99201.25;;;5.14;55.88
72587;BME280;60621;49.576;11.024;2023-04-03T01:35:09;99200.06;;;5.21;56.29
72587;BME280;60621;49.576;11.024;2023-04-03T01:36:16;99205.72;;;5.14;56.08
72587;BME280;60621;49.576;11.024;2023-04-03T01:37:18;99200.94;;;5.16;55.74
72587;BME280;60621;49.576;11.024;2023-04-03T01:38:20;99201.13;;;5.20;56.47
72587;BME280;60621;49.576;11.024;2023-04-03T01:39:22;99207.72;;;5.17;56.39
72587;BME280;60621;49.576;11.024;2023-04-03T01:40:24;99205.19;;;5.03;56.80
72587;BME280;60621;49.576;11.024;2023-04-03T01:41:27;99204.50;;;4.98;56.65
72587;BME280;60621;49.576;11.024;2023-04-03T01:42:29;99205.34;;;5.07;56.44
72587;BME280;60621;49.576;11.024;2023-04-03T01:43:31;99204.44;;;5.11;56.85
72587;BME280;60621;49.576;11.024;2023-04-03T01:44:32;99207.94;;;5.07;57.05
72587;BME280;60621;49.576;11.024;2023-04-03T01:45:34;99205.25;;;4.98;56.95
72587;BME280;60621;49.576;11.024;2023-04-03T01:46:35;99203.53;;;4.94;56.79
72587;BME280;60621;49.576;11.024;2023-04-03T01:47:39;99204.25;;;4.85;56.86
72587;BME280;60621;49.576;11.024;2023-04-03T01:48:40;99207.06;;;4.89;57.33
72587;BME280;60621;49.576;11.024;2023-04-03T01:49:42;99206.81;;;4.99;57.23
72587;BME280;60621;49.576;11.024;2023-04-03T01:50:44;99212.72;;;5.05;56.94
72587;BME280;60621;49.576;11.024;2023-04-03T01:51:45;99210.28;;;5.08;57.29
72587;BME280;60621;49.576;11.024;2023-04-03T01:52:47;99203.59;;;5.02;56.77
72587;BME280;60621;49.576;11.024;2023-04-03T01:53:48;99206.72;;;5.04;57.19
72587;BME280;60621;49.576;11.024;2023-04-03T01:54:50;99210.56;;;5.07;57.14
72587;BME280;60621;49.576;11.024;2023-04-03T01:55:52;99205.84;;;5.09;57.12
72587;BME280;60621;49.576;11.024;2023-04-03T01:56:53;99201.41;;;4.96;57.16
72587;BME280;60621;49.576;11.024;2023-04-03T01:57:55;99208.38;;;5.00;56.94
72587;BME280;60621;49.576;11.024;2023-04-03T01:58:56;99205.38;;;4.93;56.98
72587;BME280;60621;49.576;11.024;2023-04-03T01:59:59;99204.53;;;4.84;57.13
72587;BME280;60621;49.576;11.024;2023-04-03T02:01:00;99202.31;;;4.77;57.95
72587;BME280;60621;49.576;11.024;2023-04-03T02:02:02;99198.72;;;4.73;58.25
72587;BME280;60621;49.576;11.024;2023-04-03T02:03:04;99194.28;;;4.74;58.07
72587;BME280;60621;49.576;11.024;2023-04-03T02:04:06;99199.81;;;4.72;57.76
72587;BME280;60621;49.576;11.024;2023-04-03T02:05:08;99198.25;;;4.71;58.11
72587;BME280;60621;49.576;11.024;2023-04-03T02:06:10;99202.50;;;4.81;57.74
72587;BME280;60621;49.576;11.024;2023-04-03T02:07:13;99195.63;;;4.85;57.65
72587;BME280;60621;49.576;11.024;2023-04-03T02:08:14;99200.25;;;4.88;58.06
72587;BME280;60621;49.576;11.024;2023-04-03T02:09:19;99200.63;;;4.95;58.22
72587;BME280;60621;49.576;11.024;2023-04-03T02:10:21;99200.63;;;4.95;58.61
72587;BME280;60621;49.576;11.024;2023-04-03T02:11:22;99193.06;;;4.94;58.81
72587;BME280;60621;49.576;11.024;2023-04-03T02:12:24;99199.88;;;4.95;58.11
72587;BME280;60621;49.576;11.024;2023-04-03T02:13:25;99188.63;;;4.94;58.19
72587;BME280;60621;49.576;11.024;2023-04-03T02:14:27;99202.00;;;4.93;57.98
72587;BME280;60621;49.576;11.024;2023-04-03T02:15:28;99191.16;;;4.85;58.23
72587;BME280;60621;49.576;11.024;2023-04-03T02:16:30;99200.59;;;4.73;58.50
72587;BME280;60621;49.576;11.024;2023-04-03T02:17:32;99191.38;;;4.75;58.78
72587;BME280;60621;49.576;11.024;2023-04-03T02:18:34;99201.44;;;4.82;58.86
72587;BME280;60621;49.576;11.024;2023-04-03T02:19:36;99199.69;;;4.77;58.29
72587;BME280;60621;49.576;11.024;2023-04-03T02:20:37;99201.53;;;4.77;58.42
72587;BME280;60621;49.576;11.024;2023-04-03T02:21:39;99204.06;;;4.68;58.87
72587;BME280;60621;49.576;11.024;2023-04-03T02:22:41;99204.25;;;4.72;58.63
72587;BME280;60621;49.576;11.024;2023-04-03T02:23:43;99206.69;;;4.68;59.04
72587;BME280;60621;49.576;11.024;2023-04-03T02:24:44;99203.59;;;4.66;59.01
72587;BME280;60621;49.576;11.024;2023-04-03T02:25:46;99202.13;;;4.60;59.43
72587;BME280;60621;49.576;11.024;2023-04-03T02:26:50;99200.13;;;4.57;59.16
72587;BME280;60621;49.576;11.024;2023-04-03T02:27:52;99209.97;;;4.60;59.47
72587;BME280;60621;49.576;11.024;2023-04-03T02:28:53;99200.50;;;4.64;59.47
72587;BME280;60621;49.576;11.024;2023-04-03T02:29:55;99198.38;;;4.66;59.34
72587;BME280;60621;49.576;11.024;2023-04-03T02:30:56;99197.59;;;4.66;59.60
72587;BME280;60621;49.576;11.024;2023-04-03T02:31:58;99204.56;;;4.70;59.79
72587;BME280;60621;49.576;11.024;2023-04-03T02:32:59;99205.50;;;4.74;59.58
72587;BME280;60621;49.576;11.024;2023-04-03T02:34:01;99200.69;;;4.68;59.95
72587;BME280;60621;49.576;11.024;2023-04-03T02:35:03;99201.38;;;4.59;59.74
72587;BME280;60621;49.576;11.024;2023-04-03T02:36:06;99199.72;;;4.63;60.55
72587;BME280;60621;49.576;11.024;2023-04-03T02:37:08;99200.59;;;4.59;60.39
72587;BME280;60621;49.576;11.024;2023-04-03T02:38:10;99199.72;;;4.63;59.63
72587;BME280;60621;49.576;11.024;2023-04-03T02:39:11;99198.25;;;4.71;59.91
72587;BME280;60621;49.576;11.024;2023-04-03T02:40:13;99200.47;;;4.78;59.72
72587;BME280;60621;49.576;11.024;2023-04-03T02:41:15;99196.53;;;4.67;59.55
72587;BME280;60621;49.576;11.024;2023-04-03T02:42:17;99197.88;;;4.64;59.93
72587;BME280;60621;49.576;11.024;2023-04-03T02:43:18;99201.66;;;4.72;60.74
72587;BME280;60621;49.576;11.024;2023-04-03T02:44:20;99201.34;;;4.73;60.40
72587;BME280;60621;49.576;11.024;2023-04-03T02:45:21;99201.66;;;4.72;60.29
72587;BME280;60621;49.576;11.024;2023-04-03T02:46:23;99200.28;;;4.74;60.29
72587;BME280;60621;49.576;11.024;2023-04-03T02:47:24;99201.25;;;4.65;60.85
72587;BME280;60621;49.576;11.024;2023-04-03T02:48:26;99200.03;;;4.62;60.91
72587;BME280;60621;49.576;11.024;2023-04-03T02:49:28;99203.88;;;4.65;61.31
72587;BME280;60621;49.576;11.024;2023-04-03T02:50:30;99201.56;;;4.63;61.54
72587;BME280;60621;49.576;11.024;2023-04-03T02:51:32;99199.91;;;4.67;61.14
72587;BME280;60621;49.576;11.024;2023-04-03T02:52:34;99199.34;;;4.70;60.83
72587;BME280;60621;49.576;11.024;2023-04-03T02:53:35;99208.22;;;4.69;60.80
72587;BME280;60621;49.576;11.024;2023-04-03T02:54:37;99204.47;;;4.75;60.65
72587;BME280;60621;49.576;11.024;2023-04-03T02:55:38;99203.38;;;4.76;61.34
72587;BME280;60621;49.576;11.024;2023-04-03T02:56:40;99203.19;;;4.73;61.03
72587;BME280;60621;49.576;11.024;2023-04-03T02:57:41;99202.31;;;4.77;61.13
72587;BME280;60621;49.576;11.024;2023-04-03T02:58:43;99202.97;;;4.83;61.32
72587;BME280;60621;49.576;11.024;2023-04-03T02:59:44;99196.97;;;4.82;61.20
72587;BME280;60621;49.576;11.024;2023-04-03T03:00:46;99202.88;;;4.88;60.99
72587;BME280;60621;49.576;11.024;2023-04-03T03:01:48;99203.75;;;4.83;61.41
72587;BME280;60621;49.576;11.024;2023-04-03T03:02:49;99196.00;;;4.78;61.57
72587;BME280;60621;49.576;11.024;2023-04-03T03:03:51;99209.09;;;4.78;61.29
72587;BME280;60621;49.576;11.024;2023-04-03T03:04:53;99197.16;;;4.86;61.59
72587;BME280;60621;49.576;11.024;2023-04-03T03:06:06;99203.16;;;4.86;61.01
72587;BME280;60621;49.576;11.024;2023-04-03T03:07:08;99197.84;;;4.92;61.30
72587;BME280;60621;49.576;11.024;2023-04-03T03:08:09;99204.03;;;4.96;61.13
72587;BME280;60621;49.576;11.024;2023-04-03T03:09:11;99202.38;;;5.00;61.34
72587;BME280;60621;49.576;11.024;2023-04-03T03:10:14;99202.94;;;4.97;61.04
72587;BME280;60621;49.576;11.024;2023-04-03T03:11:16;99202.19;;;4.96;61.39
72587;BME280;60621;49.576;11.024;2023-04-03T03:12:17;99204.03;;;4.96;61.77
72587;BME280;60621;49.576;11.024;2023-04-03T03:13:23;99204.22;;;4.99;61.62
72587;BME280;60621;49.576;11.024;2023-04-03T03:14:25;99203.25;;;4.95;61.24
72587;BME280;60621;49.576;11.024;2023-04-03T03:15:27;99201.09;;;4.97;61.64
72587;BME280;60621;49.576;11.024;2023-04-03T03:16:28;99203.81;;;4.92;61.64
72587;BME280;60621;49.576;11.024;2023-04-03T03:17:30;99199.88;;;4.95;61.70
72587;BME280;60621;49.576;11.024;2023-04-03T03:18:34;99203.53;;;4.94;61.73
72587;BME280;60621;49.576;11.024;2023-04-03T03:19:36;99200.38;;;4.83;62.17
72587;BME280;60621;49.576;11.024;2023-04-03T03:20:37;99197.38;;;4.90;61.95
72587;BME280;60621;49.576;11.024;2023-04-03T03:21:39;99195.41;;;4.95;62.03
72587;BME280;60621;49.576;11.024;2023-04-03T03:22:40;99195.03;;;4.88;61.47
72587;BME280;60621;49.576;11.024;2023-04-03T03:23:42;99198.28;;;4.94;61.90
72587;BME280;60621;49.576;11.024;2023-04-03T03:24:43;99199.09;;;4.94;61.70
72587;BME280;60621;49.576;11.024;2023-04-03T03:25:45;99204.81;;;4.82;62.08
72587;BME280;60621;49.576;11.024;2023-04-03T03:26:47;99201.81;;;4.89;62.48
72587;BME280;60621;49.576;11.024;2023-04-03T03:27:48;99204.59;;;4.93;61.63
72587;BME280;60621;49.576;11.024;2023-04-03T03:28:50;99202.19;;;4.96;61.75
72587;BME280;60621;49.576;11.024;2023-04-03T03:29:51;99208.38;;;5.00;62.21
72587;BME280;60621;49.576;11.024;2023-04-03T03:30:53;99201.09;;;4.97;61.83
72587;BME280;60621;49.576;11.024;2023-04-03T03:31:54;99206.81;;;4.99;61.94
72587;BME280;60621;49.576;11.024;2023-04-03T03:32:56;99209.44;;;4.99;62.50
72587;BME280;60621;49.576;11.024;2023-04-03T03:33:57;99205.44;;;5.02;61.89
72587;BME280;60621;49.576;11.024;2023-04-03T03:34:59;99209.44;;;4.99;62.21
72587;BME280;60621;49.576;11.024;2023-04-03T03:36:01;99204.78;;;4.96;62.46
72587;BME280;60621;49.576;11.024;2023-04-03T03:37:02;99201.53;;;4.91;62.69
72587;BME280;60621;49.576;11.024;2023-04-03T03:38:04;99205.22;;;4.90;62.87
72587;BME280;60621;49.576;11.024;2023-04-03T03:39:05;99204.72;;;4.87;63.39
72587;BME280;60621;49.576;11.024;2023-04-03T03:40:07;99202.69;;;4.84;63.53
72587;BME280;60621;49.576;11.024;2023-04-03T03:41:09;99200.25;;;4.88;63.43
72587;BME280;60621;49.576;11.024;2023-04-03T03:42:10;99203.53;;;4.94;63.45
72587;BME280;60621;49.576;11.024;2023-04-03T03:43:12;99201.88;;;4.98;62.81
72587;BME280;60621;49.576;11.024;2023-04-03T03:44:14;99206.16;;;4.94;62.27
72587;BME280;60621;49.576;11.024;2023-04-03T03:45:16;99209.84;;;4.93;62.71
72587;BME280;60621;49.576;11.024;2023-04-03T03:46:18;99204.91;;;4.91;63.30
72587;BME280;60621;49.576;11.024;2023-04-03T03:47:19;99208.47;;;4.95;63.02
72587;BME280;60621;49.576;11.024;2023-04-03T03:48:21;99203.13;;;5.00;62.88
72587;BME280;60621;49.576;11.024;2023-04-03T03:49:23;99200.84;;;4.99;63.12
72587;BME280;60621;49.576;11.024;2023-04-03T03:50:25;99207.78;;;5.03;63.11
72587;BME280;60621;49.576;11.024;2023-04-03T03:51:26;99202.84;;;5.02;62.49
72587;BME280;60621;49.576;11.024;2023-04-03T03:52:27;99207.59;;;5.00;62.92
72587;BME280;60621;49.576;11.024;2023-04-03T03:53:29;99213.03;;;5.03;62.93
72587;BME280;60621;49.576;11.024;2023-04-03T03:54:31;99202.88;;;4.88;63.16
72587;BME280;60621;49.576;11.024;2023-04-03T03:55:33;99205.59;;;4.83;63.43
72587;BME280;60621;49.576;11.024;2023-04-03T03:56:35;99206.84;;;4.85;63.77
72587;BME280;60621;49.576;11.024;2023-04-03T03:57:36;99201.53;;;4.77;63.47
72587;BME280;60621;49.576;11.024;2023-04-03T03:58:38;99200.97;;;4.80;63.68
72587;BME280;60621;49.576;11.024;2023-04-03T03:59:40;99204.25;;;4.85;63.26
72587;BME280;60621;49.576;11.024;2023-04-03T04:00:42;99202.00;;;4.93;63.17
72587;BME280;60621;49.576;11.024;2023-04-03T04:01:43;99202.75;;;4.93;62.55
72587;BME280;60621;49.576;11.024;2023-04-03T04:02:45;99208.97;;;4.83;63.01
72587;BME280;60621;49.576;11.024;2023-04-03T04:03:47;99201.66;;;4.72;63.57
72587;BME280;60621;49.576;11.024;2023-04-03T04:04:49;99207.06;;;4.75;63.95
72587;BME280;60621;49.576;11.024;2023-04-03T04:05:51;99210.72;;;4.74;63.89
72587;BME280;60621;49.576;11.024;2023-04-03T04:06:52;99209.28;;;4.68;63.72
72587;BME280;60621;49.576;11.024;2023-04-03T04:07:54;99206.56;;;4.73;63.51
72587;BME280;60621;49.576;11.024;2023-04-03T04:08:55;99201.84;;;4.75;63.96
72587;BME280;60621;49.576;11.024;2023-04-03T04:09:57;99199.81;;;4.72;63.89
72587;BME280;60621;49.576;11.024;2023-04-03T04:10:59;99204.38;;;4.67;64.16
72587;BME280;60621;49.576;11.024;2023-04-03T04:12:00;99209.28;;;4.68;63.25
72587;BME280;60621;49.576;11.024;2023-04-03T04:13:02;99210.47;;;4.62;64.01
72587;BME280;60621;49.576;11.024;2023-04-03T04:14:03;99209.97;;;4.60;64.32
72587;BME280;60621;49.576;11.024;2023-04-03T04:15:05;99204.38;;;4.67;63.86
72587;BME280;60621;49.576;11.024;2023-04-03T04:16:07;99206.50;;;4.65;63.71
72587;BME280;60621;49.576;11.024;2023-04-03T04:17:08;99208.22;;;4.69;64.01
72587;BME280;60621;49.576;11.024;2023-04-03T04:18:10;99209.59;;;4.67;64.16
72587;BME280;60621;49.576;11.024;2023-04-03T04:19:13;99209.28;;;4.68;64.45
72587;BME280;60621;49.576;11.024;2023-04-03T04:20:15;99214.06;;;4.66;63.56
72587;BME280;60621;49.576;11.024;2023-04-03T04:21:16;99210.94;;;4.64;64.54
72587;BME280;60621;49.576;11.024;2023-04-03T04:22:18;99213.66;;;4.59;63.94
72587;BME280;60621;49.576;11.024;2023-04-03T04:23:19;99215.09;;;4.65;63.78
72587;BME280;60621;49.576;11.024;2023-04-03T04:24:21;99209.00;;;4.70;63.48
72587;BME280;60621;49.576;11.024;2023-04-03T04:25:24;99215.59;;;4.67;63.82
72587;BME280;60621;49.576;11.024;2023-04-03T04:26:25;99209.03;;;4.56;64.49
72587;BME280;60621;49.576;11.024;2023-04-03T04:27:27;99210.94;;;4.50;64.16
72587;BME280;60621;49.576;11.024;2023-04-03T04:28:28;99213.75;;;4.54;63.72
72587;BME280;60621;49.576;11.024;2023-04-03T04:29:30;99207.97;;;4.57;64.53
72587;BME280;60621;49.576;11.024;2023-04-03T04:30:36;99203.00;;;4.55;64.71
72587;BME280;60621;49.576;11.024;2023-04-03T04:31:38;99208.84;;;4.52;64.79
72587;BME280;60621;49.576;11.024;2023-04-03T04:32:39;99210.47;;;4.48;64.86
72587;BME280;60621;49.576;11.024;2023-04-03T04:33:41;99213.09;;;4.48;64.55
72587;BME280;60621;49.576;11.024;2023-04-03T04:34:42;99213.09;;;4.34;64.88
72587;BME280;60621;49.576;11.024;2023-04-03T04:35:46;99211.66;;;4.28;65.13
72587;BME280;60621;49.576;11.024;2023-04-03T04:36:48;99215.13;;;4.38;64.75
72587;BME280;60621;49.576;11.024;2023-04-03T04:37:50;99207.66;;;4.45;65.33
72587;BME280;60621;49.576;11.024;2023-04-03T04:38:52;99211.94;;;4.41;64.63
72587;BME280;60621;49.576;11.024;2023-04-03T04:39:56;99214.38;;;4.37;64.55
72587;BME280;60621;49.576;11.024;2023-04-03T04:40:58;99210.38;;;4.40;64.84
72587;BME280;60621;49.576;11.024;2023-04-03T04:41:59;99209.59;;;4.39;65.32
72587;BME280;60621;49.576;11.024;2023-04-03T04:43:01;99210.69;;;4.38;65.29
72587;BME280;60621;49.576;11.024;2023-04-03T04:44:02;99204.59;;;4.43;64.92
72587;BME280;60621;49.576;11.024;2023-04-03T04:45:04;99211.56;;;4.33;64.65
72587;BME280;60621;49.576;11.024;2023-04-03T04:46:08;99208.06;;;4.38;65.31
72587;BME280;60621;49.576;11.024;2023-04-03T04:47:10;99210.69;;;4.38;64.46
72587;BME280;60621;49.576;11.024;2023-04-03T04:48:12;99197.13;;;4.22;65.05
72587;BME280;60621;49.576;11.024;2023-04-03T04:49:13;99205.16;;;4.26;65.12
72587;BME280;60621;49.576;11.024;2023-04-03T04:50:15;99209.03;;;4.28;65.74
72587;BME280;60621;49.576;11.024;2023-04-03T04:51:17;99208.75;;;4.30;65.51
72587;BME280;60621;49.576;11.024;2023-04-03T04:52:19;99200.44;;;4.28;65.47
72587;BME280;60621;49.576;11.024;2023-04-03T04:53:21;99208.94;;;4.33;65.14
72587;BME280;60621;49.576;11.024;2023-04-03T04:54:23;99207.56;;;4.36;65.27
72587;BME280;60621;49.576;11.024;2023-04-03T04:55:24;99209.50;;;4.30;65.11
72587;BME280;60621;49.576;11.024;2023-04-03T04:56:26;99211.44;;;4.25;65.74
72587;BME280;60621;49.576;11.024;2023-04-03T04:57:27;99210.19;;;4.22;65.70
72587;BME280;60621;49.576;11.024;2023-04-03T04:58:29;99212.53;;;4.24;64.90
72587;BME280;60621;49.576;11.024;2023-04-03T04:59:31;99216.00;;;4.19;65.17
72587;BME280;60621;49.576;11.024;2023-04-03T05:00:32;99208.63;;;4.21;65.29
72587;BME280;60621;49.576;11.024;2023-04-03T05:01:34;99214.44;;;4.18;65.30
72587;BME280;60621;49.576;11.024;2023-04-03T05:02:37;99209.78;;;4.15;65.25
72587;BME280;60621;49.576;11.024;2023-04-03T05:03:38;99213.75;;;4.13;65.06
72587;BME280;60621;49.576;11.024;2023-04-03T05:04:40;99216.56;;;4.16;64.60
72587;BME280;60621;49.576;11.024;2023-04-03T05:05:41;99215.69;;;4.21;64.80
72587;BME280;60621;49.576;11.024;2023-04-03T05:06:43;99224.72;;;4.28;64.76
72587;BME280;60621;49.576;11.024;2023-04-03T05:07:44;99224.72;;;4.28;64.33
72587;BME280;60621;49.576;11.024;2023-04-03T05:08:46;99225.94;;;4.17;64.74
72587;BME280;60621;49.576;11.024;2023-04-03T05:09:47;99231.00;;;4.14;65.25
72587;BME280;60621;49.576;11.024;2023-04-03T05:10:49;99232.22;;;4.16;65.21
72587;BME280;60621;49.576;11.024;2023-04-03T05:11:54;99233.41;;;4.10;65.43
72587;BME280;60621;49.576;11.024;2023-04-03T05:12:57;99230.00;;;4.09;65.12
72587;BME280;60621;49.576;11.024;2023-04-03T05:13:59;99226.00;;;3.98;65.21
72587;BME280;60621;49.576;11.024;2023-04-03T05:15:01;99225.06;;;4.08;65.00
72587;BME280;60621;49.576;11.024;2023-04-03T05:16:02;99222.84;;;4.01;64.97
72587;BME280;60621;49.576;11.024;2023-04-03T05:17:04;99231.72;;;4.00;65.38
72587;BME280;60621;49.576;11.024;2023-04-03T05:18:05;99233.53;;;3.86;64.83
72587;BME280;60621;49.576;11.024;2023-04-03T05:19:07;99225.03;;;3.80;65.60
72587;BME280;60621;49.576;11.024;2023-04-03T05:20:09;99232.56;;;3.82;65.39
72587;BME280;60621;49.576;11.024;2023-04-03T05:21:11;99235.84;;;3.88;65.66
72587;BME280;60621;49.576;11.024;2023-04-03T05:22:13;99237.91;;;3.91;65.62
72587;BME280;60621;49.576;11.024;2023-04-03T05:23:14;99232.22;;;4.02;65.51
72587;BME280;60621;49.576;11.024;2023-04-03T05:24:16;99237.25;;;4.13;65.01
72587;BME280;60621;49.576;11.024;2023-04-03T05:25:18;99233.09;;;4.11;64.80
72587;BME280;60621;49.576;11.024;2023-04-03T05:26:19;99238.81;;;4.14;64.89
72587;BME280;60621;49.576;11.024;2023-04-03T05:27:22;99238.31;;;4.11;64.84
72587;BME280;60621;49.576;11.024;2023-04-03T05:28:25;99243.63;;;4.06;64.55
72587;BME280;60621;49.576;11.024;2023-04-03T05:29:27;99237.25;;;3.99;64.78
72587;BME280;60621;49.576;11.024;2023-04-03T05:30:28;99240.81;;;4.03;64.36
72587;BME280;60621;49.576;11.024;2023-04-03T05:31:30;99241.22;;;4.10;64.44
72587;BME280;60621;49.576;11.024;2023-04-03T05:32:32;99236.38;;;4.17;64.75
72587;BME280;60621;49.576;11.024;2023-04-03T05:33:34;99242.28;;;4.09;65.04
72587;BME280;60621;49.576;11.024;2023-04-03T05:34:36;99245.69;;;4.09;65.19
72587;BME280;60621;49.576;11.024;2023-04-03T05:35:37;99234.94;;;4.11;64.87
72587;BME280;60621;49.576;11.024;2023-04-03T05:36:43;99241.22;;;4.10;65.24